createdAt,value
2018-10-12T00:01:00.000Z,15.6
2018-10-12T00:06:00.000Z,15.7
2018-10-12T00:11:00.000Z,15.7
2018-10-12T00:16:00.000Z,15.7
2018-10-12T00:21:00.000Z,15.7
2018-10-12T00:26:00.000Z,15.7
2018-10-12T00:31:00.000Z,15.6
2018-10-12T00:36:00.000Z,15.6
2018-10-12T00:41:00.000Z,15.5
2018-10-12T00:46:00.000Z,15.5
2018-10-12T00:51:00.000Z,15.4
2018-10-12T00:56:00.000Z,15.4
2018-10-12T01:01:00.000Z,15.4
2018-10-12T01:06:00.000Z,15.3
2018-10-12T01:11:00.000Z,15.3
2018-10-12T01:16:00.000Z,15.2
2018-10-12T01:21:00.000Z,15.1
2018-10-12T01:26:00.000Z,15.1
2018-10-12T01:31:00.000Z,15.1
2018-10-12T01:36:00.000Z,15.1
2018-10-12T01:41:00.000Z,15.0
2018-10-12T01:46:00.000Z,15.0
2018-10-12T01:51:00.000Z,15.0
2018-10-12T01:56:00.000Z,15.0
2018-10-12T02:01:00.000Z,15.0
2018-10-12T02:06:00.000Z,15.0
2018-10-12T02:11:00.000Z,14.9
2018-10-12T02:16:00.000Z,14.9
2018-10-12T02:21:00.000Z,14.8
2018-10-12T02:26:00.000Z,14.7
2018-10-12T02:31:00.000Z,14.6
2018-10-12T02:36:00.000Z,14.5
2018-10-12T02:41:00.000Z,14.5
2018-10-12T02:46:00.000Z,14.4
2018-10-12T02:51:00.000Z,14.3
2018-10-12T02:56:00.000Z,14.3
2018-10-12T03:01:00.000Z,14.3
2018-10-12T03:06:00.000Z,14.3
2018-10-12T03:11:00.000Z,14.3
2018-10-12T03:16:00.000Z,14.2
2018-10-12T03:21:00.000Z,14.2
2018-10-12T03:26:00.000Z,14.1
2018-10-12T03:31:00.000Z,14.1
2018-10-12T03:36:00.000Z,14.1
2018-10-12T03:41:00.000Z,14.2
2018-10-12T03:46:00.000Z,14.2
2018-10-12T03:51:00.000Z,14.1
2018-10-12T03:56:00.000Z,14.1
2018-10-12T04:01:00.000Z,14.1
2018-10-12T04:06:00.000Z,14.1
2018-10-12T04:11:00.000Z,14.0
2018-10-12T04:16:00.000Z,14.1
2018-10-12T04:21:00.000Z,14.1
2018-10-12T04:26:00.000Z,14.1
2018-10-12T04:31:00.000Z,14.1
2018-10-12T04:36:00.000Z,14.1
2018-10-12T04:41:00.000Z,14.1
2018-10-12T04:46:00.000Z,14.2
2018-10-12T04:51:00.000Z,14.2
2018-10-12T04:56:00.000Z,14.2
2018-10-12T05:01:00.000Z,14.2
2018-10-12T05:06:00.000Z,14.3
2018-10-12T05:11:00.000Z,14.2
2018-10-12T05:16:00.000Z,14.2
2018-10-12T05:21:00.000Z,14.2
2018-10-12T05:26:00.000Z,14.2
2018-10-12T05:31:00.000Z,14.2
2018-10-12T05:37:00.000Z,14.2
2018-10-12T05:42:00.000Z,14.2
2018-10-12T05:47:00.000Z,14.1
2018-10-12T05:52:00.000Z,14.1
2018-10-12T05:57:00.000Z,14.0
2018-10-12T06:02:00.000Z,14.0
2018-10-12T06:07:00.000Z,14.0
2018-10-12T06:12:00.000Z,14.0
2018-10-12T06:17:00.000Z,14.0
2018-10-12T06:22:00.000Z,14.1
2018-10-12T06:27:00.000Z,14.2
2018-10-12T06:32:00.000Z,14.3
2018-10-12T06:37:00.000Z,14.4
2018-10-12T06:42:00.000Z,14.5
2018-10-12T06:47:00.000Z,14.6
2018-10-12T06:52:00.000Z,14.7
2018-10-12T06:57:00.000Z,14.8
2018-10-12T07:02:00.000Z,14.9
2018-10-12T07:07:00.000Z,15.0
2018-10-12T07:12:00.000Z,15.2
2018-10-12T07:17:00.000Z,15.3
2018-10-12T07:22:00.000Z,15.5
2018-10-12T07:27:00.000Z,15.6
2018-10-12T07:32:00.000Z,15.8
2018-10-12T07:37:00.000Z,15.9
2018-10-12T07:42:00.000Z,16.1
2018-10-12T07:47:00.000Z,16.3
2018-10-12T07:52:00.000Z,16.5
2018-10-12T07:57:00.000Z,16.7
2018-10-12T08:02:00.000Z,16.9
2018-10-12T08:07:00.000Z,17.1
2018-10-12T08:12:00.000Z,17.3
2018-10-12T08:17:00.000Z,17.5
2018-10-12T08:22:00.000Z,17.8
2018-10-12T08:27:00.000Z,18.0
2018-10-12T08:32:00.000Z,18.2
2018-10-12T08:37:00.000Z,19.4
2018-10-12T08:42:00.000Z,20.7
2018-10-12T08:47:00.000Z,21.7
2018-10-12T08:52:00.000Z,22.8
2018-10-12T08:57:00.000Z,23.6
2018-10-12T09:02:00.000Z,24.2
2018-10-12T09:07:00.000Z,24.7
2018-10-12T09:12:00.000Z,25.0
2018-10-12T09:17:00.000Z,25.3
2018-10-12T09:22:00.000Z,25.7
2018-10-12T09:27:00.000Z,25.8
2018-10-12T09:32:00.000Z,25.8
2018-10-12T09:37:00.000Z,26.0
2018-10-12T09:42:00.000Z,26.1
2018-10-12T09:47:00.000Z,26.3
2018-10-12T09:52:00.000Z,26.4
2018-10-12T09:57:00.000Z,26.5
2018-10-12T10:02:00.000Z,26.4
2018-10-12T10:07:00.000Z,26.4
2018-10-12T10:12:00.000Z,26.5
2018-10-12T10:17:00.000Z,26.3
2018-10-12T10:22:00.000Z,26.3
2018-10-12T10:27:00.000Z,26.2
2018-10-12T10:32:00.000Z,26.2
2018-10-12T10:37:00.000Z,26.1
2018-10-12T10:42:00.000Z,25.8
2018-10-12T10:47:00.000Z,25.6
2018-10-12T10:52:00.000Z,25.5
2018-10-12T10:57:00.000Z,25.4
2018-10-12T11:02:00.000Z,25.2
2018-10-12T11:07:00.000Z,25.0
2018-10-12T11:12:00.000Z,24.8
2018-10-12T11:17:00.000Z,24.5
2018-10-12T11:22:00.000Z,24.4
2018-10-12T11:27:00.000Z,24.1
2018-10-12T11:32:00.000Z,23.8
2018-10-12T11:38:00.000Z,23.4
2018-10-12T11:43:00.000Z,23.1
2018-10-12T11:48:00.000Z,22.9
2018-10-12T11:53:00.000Z,22.8
2018-10-12T11:58:00.000Z,22.8
2018-10-12T12:03:00.000Z,22.9
2018-10-12T12:08:00.000Z,22.9
2018-10-12T12:13:00.000Z,23.0
2018-10-12T12:18:00.000Z,23.0
2018-10-12T12:23:00.000Z,23.1
2018-10-12T12:28:00.000Z,23.2
2018-10-12T12:33:00.000Z,23.3
2018-10-12T12:38:00.000Z,23.4
2018-10-12T12:43:00.000Z,23.5
2018-10-12T12:48:00.000Z,23.6
2018-10-12T12:53:00.000Z,23.6
2018-10-12T12:58:00.000Z,23.8
2018-10-12T13:03:00.000Z,23.9
2018-10-12T13:08:00.000Z,24.0
2018-10-12T13:13:00.000Z,24.0
2018-10-12T13:18:00.000Z,24.1
2018-10-12T13:23:00.000Z,24.1
2018-10-12T13:28:00.000Z,24.1
2018-10-12T13:33:00.000Z,24.0
2018-10-12T13:38:00.000Z,23.8
2018-10-12T13:43:00.000Z,23.7
2018-10-12T13:48:00.000Z,23.6
2018-10-12T13:53:00.000Z,23.6
2018-10-12T13:58:00.000Z,23.4
2018-10-12T14:03:00.000Z,23.3
2018-10-12T14:08:00.000Z,23.2
2018-10-12T14:13:00.000Z,23.0
2018-10-12T14:18:00.000Z,22.9
2018-10-12T14:23:00.000Z,22.8
2018-10-12T14:28:00.000Z,22.6
2018-10-12T14:33:00.000Z,22.5
2018-10-12T14:38:00.000Z,22.3
2018-10-12T14:43:00.000Z,22.1
2018-10-12T14:48:00.000Z,22.0
2018-10-12T14:53:00.000Z,21.8
2018-10-12T14:58:00.000Z,21.6
2018-10-12T15:03:00.000Z,21.5
2018-10-12T15:09:00.000Z,21.3
2018-10-12T15:14:00.000Z,21.1
2018-10-12T15:19:00.000Z,21.0
2018-10-12T15:24:00.000Z,20.9
2018-10-12T15:29:00.000Z,20.8
2018-10-12T15:34:00.000Z,20.7
2018-10-12T15:39:00.000Z,20.6
2018-10-12T15:44:00.000Z,20.5
2018-10-12T15:49:00.000Z,20.4
2018-10-12T15:54:00.000Z,20.3
2018-10-12T15:59:00.000Z,20.1
2018-10-12T16:04:00.000Z,20.0
2018-10-12T16:09:00.000Z,19.9
2018-10-12T16:14:00.000Z,19.8
2018-10-12T16:19:00.000Z,19.6
2018-10-12T16:24:00.000Z,19.5
2018-10-12T16:29:00.000Z,19.4
2018-10-12T16:34:00.000Z,19.3
2018-10-12T16:39:00.000Z,19.2
2018-10-12T16:44:00.000Z,19.1
2018-10-12T16:49:00.000Z,19.0
2018-10-12T16:54:00.000Z,18.9
2018-10-12T16:59:00.000Z,18.8
2018-10-12T17:04:00.000Z,18.7
2018-10-12T17:09:00.000Z,18.6
2018-10-12T17:14:00.000Z,18.6
2018-10-12T17:19:00.000Z,18.5
2018-10-12T17:24:00.000Z,18.4
2018-10-12T17:29:00.000Z,18.4
2018-10-12T17:34:00.000Z,18.3
2018-10-12T17:39:00.000Z,18.2
2018-10-12T17:44:00.000Z,18.1
2018-10-12T17:49:00.000Z,18.0
2018-10-12T17:54:00.000Z,18.0
2018-10-12T17:59:00.000Z,17.9
2018-10-12T18:04:00.000Z,17.8
2018-10-12T18:09:00.000Z,17.7
2018-10-12T18:14:00.000Z,17.7
2018-10-12T18:19:00.000Z,17.6
2018-10-12T18:24:00.000Z,17.5
2018-10-12T18:29:00.000Z,17.5
2018-10-12T18:34:00.000Z,17.4
2018-10-12T18:39:00.000Z,17.3
2018-10-12T18:44:00.000Z,17.2
2018-10-12T18:49:00.000Z,17.2
2018-10-12T18:54:00.000Z,17.1
2018-10-12T18:59:00.000Z,17.0
2018-10-12T19:04:00.000Z,16.9
2018-10-12T19:09:00.000Z,16.8
2018-10-12T19:14:00.000Z,16.7
2018-10-12T19:19:00.000Z,16.7
2018-10-12T19:24:00.000Z,16.6
2018-10-12T19:29:00.000Z,16.6
2018-10-12T19:34:00.000Z,16.5
2018-10-12T19:39:00.000Z,16.4
2018-10-12T19:44:00.000Z,16.3
2018-10-12T19:49:00.000Z,16.3
2018-10-12T19:54:00.000Z,16.2
2018-10-12T19:59:00.000Z,16.1
2018-10-12T20:04:00.000Z,16.1
2018-10-12T20:09:00.000Z,16.0
2018-10-12T20:14:00.000Z,15.9
2018-10-12T20:19:00.000Z,15.8
2018-10-12T20:24:00.000Z,15.8
2018-10-12T20:29:00.000Z,15.7
2018-10-12T20:34:00.000Z,15.7
2018-10-12T20:39:00.000Z,15.6
2018-10-12T20:44:00.000Z,15.6
2018-10-12T20:50:00.000Z,15.6
2018-10-12T20:55:00.000Z,15.5
2018-10-12T21:00:00.000Z,15.4
2018-10-12T21:05:00.000Z,15.4
2018-10-12T21:10:00.000Z,15.4
2018-10-12T21:15:00.000Z,15.3
2018-10-12T21:20:00.000Z,15.3
2018-10-12T21:25:00.000Z,15.3
2018-10-12T21:30:00.000Z,15.2
2018-10-12T21:35:00.000Z,15.2
2018-10-12T21:40:00.000Z,15.1
2018-10-12T21:45:00.000Z,15.1
2018-10-12T21:50:00.000Z,15.0
2018-10-12T21:55:00.000Z,15.0
2018-10-12T22:00:00.000Z,14.9
2018-10-12T22:05:00.000Z,14.9
2018-10-12T22:10:00.000Z,14.9
2018-10-12T22:15:00.000Z,14.8
2018-10-12T22:20:00.000Z,14.8
2018-10-12T22:25:00.000Z,14.7
2018-10-12T22:30:00.000Z,14.7
2018-10-12T22:35:00.000Z,14.7
2018-10-12T22:40:00.000Z,14.7
2018-10-12T22:45:00.000Z,14.7
2018-10-12T22:50:00.000Z,14.6
2018-10-12T22:55:00.000Z,14.6
2018-10-12T23:00:00.000Z,14.6
2018-10-12T23:05:00.000Z,14.6
2018-10-12T23:10:00.000Z,14.6
2018-10-12T23:15:00.000Z,14.5
2018-10-12T23:20:00.000Z,14.5
2018-10-12T23:25:00.000Z,14.4
2018-10-12T23:30:00.000Z,14.4
2018-10-12T23:35:00.000Z,14.3
2018-10-12T23:40:00.000Z,14.2
2018-10-12T23:45:00.000Z,14.2
2018-10-12T23:50:00.000Z,14.1
2018-10-12T23:55:00.000Z,14.1
